sensor_id;sensor_type;location;lat;lon;timestamp;temperature;humidity
74511;DHT22;62991;50.040;18.400;2023-08-12T00:01:05;19.70;58.40
74511;DHT22;62991;50.040;18.400;2023-08-12T00:04:06;19.70;58.50
74511;DHT22;62991;50.040;18.400;2023-08-12T00:07:06;19.70;58.90
74511;DHT22;62991;50.040;18.400;2023-08-12T00:10:08;19.70;58.80
74511;DHT22;62991;50.040;18.400;2023-08-12T00:13:09;19.60;59.20
74511;DHT22;62991;50.040;18.400;2023-08-12T00:16:09;19.60;59.80
74511;DHT22;62991;50.040;18.400;2023-08-12T00:19:10;19.50;60.60
74511;DHT22;62991;50.040;18.400;2023-08-12T00:22:11;19.50;61.20
74511;DHT22;62991;50.040;18.400;2023-08-12T00:25:13;19.40;61.60
74511;DHT22;62991;50.040;18.400;2023-08-12T00:28:14;19.40;62.00
74511;DHT22;62991;50.040;18.400;2023-08-12T00:31:14;19.30;62.10
74511;DHT22;62991;50.040;18.400;2023-08-12T00:34:15;19.10;62.60
74511;DHT22;62991;50.040;18.400;2023-08-12T00:37:16;19.10;62.90
74511;DHT22;62991;50.040;18.400;2023-08-12T00:40:16;19.10;63.20
74511;DHT22;62991;50.040;18.400;2023-08-12T00:43:17;19.00;64.20
74511;DHT22;62991;50.040;18.400;2023-08-12T00:46:18;18.70;64.80
74511;DHT22;62991;50.040;18.400;2023-08-12T00:49:18;18.70;65.10
74511;DHT22;62991;50.040;18.400;2023-08-12T00:52:19;18.70;65.10
74511;DHT22;62991;50.040;18.400;2023-08-12T00:55:20;18.70;65.40
74511;DHT22;62991;50.040;18.400;2023-08-12T00:58:21;18.70;65.50
74511;DHT22;62991;50.040;18.400;2023-08-12T01:01:22;18.70;65.40
74511;DHT22;62991;50.040;18.400;2023-08-12T01:04:23;18.60;65.50
74511;DHT22;62991;50.040;18.400;2023-08-12T01:07:23;18.60;65.30
74511;DHT22;62991;50.040;18.400;2023-08-12T01:10:30;18.60;65.40
74511;DHT22;62991;50.040;18.400;2023-08-12T01:13:52;18.50;65.60
74511;DHT22;62991;50.040;18.400;2023-08-12T01:17:00;18.50;65.50
74511;DHT22;62991;50.040;18.400;2023-08-12T01:20:06;18.50;65.50
74511;DHT22;62991;50.040;18.400;2023-08-12T01:23:15;18.50;65.60
74511;DHT22;62991;50.040;18.400;2023-08-12T01:26:16;18.40;65.80
74511;DHT22;62991;50.040;18.400;2023-08-12T01:29:17;18.40;65.90
74511;DHT22;62991;50.040;18.400;2023-08-12T01:32:54;18.40;66.20
74511;DHT22;62991;50.040;18.400;2023-08-12T01:36:19;18.30;66.20
74511;DHT22;62991;50.040;18.400;2023-08-12T01:39:23;18.30;66.50
74511;DHT22;62991;50.040;18.400;2023-08-12T01:42:27;18.20;66.60
74511;DHT22;62991;50.040;18.400;2023-08-12T01:45:32;18.10;66.90
74511;DHT22;62991;50.040;18.400;2023-08-12T01:48:33;18.10;66.90
74511;DHT22;62991;50.040;18.400;2023-08-12T01:51:33;18.10;67.00
74511;DHT22;62991;50.040;18.400;2023-08-12T01:54:34;18.10;67.10
74511;DHT22;62991;50.040;18.400;2023-08-12T01:57:35;18.00;67.20
74511;DHT22;62991;50.040;18.400;2023-08-12T02:00:35;17.90;67.30
74511;DHT22;62991;50.040;18.400;2023-08-12T02:03:36;18.00;67.50
74511;DHT22;62991;50.040;18.400;2023-08-12T02:06:37;17.90;67.50
74511;DHT22;62991;50.040;18.400;2023-08-12T02:09:37;17.80;67.70
74511;DHT22;62991;50.040;18.400;2023-08-12T02:12:38;17.60;68.10
74511;DHT22;62991;50.040;18.400;2023-08-12T02:15:39;17.60;68.30
74511;DHT22;62991;50.040;18.400;2023-08-12T02:18:39;17.60;68.10
74511;DHT22;62991;50.040;18.400;2023-08-12T02:21:41;17.50;68.40
74511;DHT22;62991;50.040;18.400;2023-08-12T02:24:42;17.60;68.40
74511;DHT22;62991;50.040;18.400;2023-08-12T02:27:43;17.60;68.40
74511;DHT22;62991;50.040;18.400;2023-08-12T02:30:44;17.60;68.10
74511;DHT22;62991;50.040;18.400;2023-08-12T02:33:44;17.60;68.10
74511;DHT22;62991;50.040;18.400;2023-08-12T02:36:45;17.60;68.30
74511;DHT22;62991;50.040;18.400;2023-08-12T02:39:45;17.60;68.20
74511;DHT22;62991;50.040;18.400;2023-08-12T02:42:46;17.60;68.20
74511;DHT22;62991;50.040;18.400;2023-08-12T02:45:47;17.60;68.20
74511;DHT22;62991;50.040;18.400;2023-08-12T02:48:47;17.60;68.00
74511;DHT22;62991;50.040;18.400;2023-08-12T02:51:48;17.70;68.00
74511;DHT22;62991;50.040;18.400;2023-08-12T02:54:49;17.70;67.90
74511;DHT22;62991;50.040;18.400;2023-08-12T02:57:49;17.70;67.90
74511;DHT22;62991;50.040;18.400;2023-08-12T03:00:50;17.60;67.90
74511;DHT22;62991;50.040;18.400;2023-08-12T03:03:51;17.70;67.80
74511;DHT22;62991;50.040;18.400;2023-08-12T03:06:51;17.60;67.90
74511;DHT22;62991;50.040;18.400;2023-08-12T03:09:52;17.60;67.90
74511;DHT22;62991;50.040;18.400;2023-08-12T03:12:52;17.60;68.10
74511;DHT22;62991;50.040;18.400;2023-08-12T03:15:54;17.60;68.00
74511;DHT22;62991;50.040;18.400;2023-08-12T03:18:55;17.50;68.10
74511;DHT22;62991;50.040;18.400;2023-08-12T03:21:55;17.50;68.10
74511;DHT22;62991;50.040;18.400;2023-08-12T03:24:56;17.50;68.10
74511;DHT22;62991;50.040;18.400;2023-08-12T03:27:56;17.50;68.10
74511;DHT22;62991;50.040;18.400;2023-08-12T03:30:57;17.50;68.30
74511;DHT22;62991;50.040;18.400;2023-08-12T03:33:58;17.50;68.30
74511;DHT22;62991;50.040;18.400;2023-08-12T03:36:58;17.50;68.50
74511;DHT22;62991;50.040;18.400;2023-08-12T03:39:59;17.50;68.40
74511;DHT22;62991;50.040;18.400;2023-08-12T03:43:00;17.50;68.40
74511;DHT22;62991;50.040;18.400;2023-08-12T03:46:00;17.50;68.40
74511;DHT22;62991;50.040;18.400;2023-08-12T03:49:01;17.50;68.50
74511;DHT22;62991;50.040;18.400;2023-08-12T03:52:02;17.50;68.40
74511;DHT22;62991;50.040;18.400;2023-08-12T03:55:03;17.50;68.40
74511;DHT22;62991;50.040;18.400;2023-08-12T03:58:04;17.50;68.30
74511;DHT22;62991;50.040;18.400;2023-08-12T04:01:05;17.40;68.50
74511;DHT22;62991;50.040;18.400;2023-08-12T04:04:06;17.50;68.50
74511;DHT22;62991;50.040;18.400;2023-08-12T04:07:06;17.50;68.40
74511;DHT22;62991;50.040;18.400;2023-08-12T04:10:07;17.50;68.20
74511;DHT22;62991;50.040;18.400;2023-08-12T04:13:08;17.50;68.10
74511;DHT22;62991;50.040;18.400;2023-08-12T04:16:09;17.50;68.10
74511;DHT22;62991;50.040;18.400;2023-08-12T04:19:09;17.60;67.90
74511;DHT22;62991;50.040;18.400;2023-08-12T04:22:10;17.60;67.80
74511;DHT22;62991;50.040;18.400;2023-08-12T04:25:10;17.60;67.80
74511;DHT22;62991;50.040;18.400;2023-08-12T04:28:12;17.50;68.10
74511;DHT22;62991;50.040;18.400;2023-08-12T04:31:13;17.50;68.10
74511;DHT22;62991;50.040;18.400;2023-08-12T04:34:13;17.60;67.80
74511;DHT22;62991;50.040;18.400;2023-08-12T04:37:14;17.70;67.60
74511;DHT22;62991;50.040;18.400;2023-08-12T04:40:15;17.70;67.50
74511;DHT22;62991;50.040;18.400;2023-08-12T04:43:15;17.70;67.40
74511;DHT22;62991;50.040;18.400;2023-08-12T04:46:17;17.70;67.50
74511;DHT22;62991;50.040;18.400;2023-08-12T04:49:18;17.80;67.50
74511;DHT22;62991;50.040;18.400;2023-08-12T04:52:20;17.80;67.20
74511;DHT22;62991;50.040;18.400;2023-08-12T04:55:21;17.80;67.40
74511;DHT22;62991;50.040;18.400;2023-08-12T04:58:22;17.90;67.20
74511;DHT22;62991;50.040;18.400;2023-08-12T05:01:22;18.00;67.20
74511;DHT22;62991;50.040;18.400;2023-08-12T05:04:23;17.90;67.30
74511;DHT22;62991;50.040;18.400;2023-08-12T05:07:24;17.80;67.40
74511;DHT22;62991;50.040;18.400;2023-08-12T05:10:24;17.60;68.10
74511;DHT22;62991;50.040;18.400;2023-08-12T05:13:25;17.60;68.20
74511;DHT22;62991;50.040;18.400;2023-08-12T05:16:25;17.80;68.00
74511;DHT22;62991;50.040;18.400;2023-08-12T05:19:26;17.80;67.90
74511;DHT22;62991;50.040;18.400;2023-08-12T05:22:27;18.00;66.70
74511;DHT22;62991;50.040;18.400;2023-08-12T05:25:27;18.00;67.20
74511;DHT22;62991;50.040;18.400;2023-08-12T05:28:28;17.90;67.10
74511;DHT22;62991;50.040;18.400;2023-08-12T05:31:29;17.90;67.20
74511;DHT22;62991;50.040;18.400;2023-08-12T05:34:30;17.90;67.70
74511;DHT22;62991;50.040;18.400;2023-08-12T05:37:30;18.00;66.80
74511;DHT22;62991;50.040;18.400;2023-08-12T05:40:31;18.00;67.10
74511;DHT22;62991;50.040;18.400;2023-08-12T05:43:32;18.00;67.20
74511;DHT22;62991;50.040;18.400;2023-08-12T05:46:32;17.90;67.70
74511;DHT22;62991;50.040;18.400;2023-08-12T05:49:33;18.10;67.40
74511;DHT22;62991;50.040;18.400;2023-08-12T05:52:34;18.10;66.80
74511;DHT22;62991;50.040;18.400;2023-08-12T05:55:35;18.00;66.90
74511;DHT22;62991;50.040;18.400;2023-08-12T05:58:35;18.10;67.20
74511;DHT22;62991;50.040;18.400;2023-08-12T06:01:36;18.10;66.60
74511;DHT22;62991;50.040;18.400;2023-08-12T06:04:36;18.10;66.50
74511;DHT22;62991;50.040;18.400;2023-08-12T06:07:37;18.20;66.90
74511;DHT22;62991;50.040;18.400;2023-08-12T06:10:38;18.20;66.00
74511;DHT22;62991;50.040;18.400;2023-08-12T06:13:39;18.30;65.70
74511;DHT22;62991;50.040;18.400;2023-08-12T06:16:39;18.40;66.80
74511;DHT22;62991;50.040;18.400;2023-08-12T06:19:40;18.50;66.00
74511;DHT22;62991;50.040;18.400;2023-08-12T06:22:41;18.60;66.00
74511;DHT22;62991;50.040;18.400;2023-08-12T06:25:41;18.70;65.50
74511;DHT22;62991;50.040;18.400;2023-08-12T06:28:43;18.70;64.70
74511;DHT22;62991;50.040;18.400;2023-08-12T06:31:44;18.80;66.10
74511;DHT22;62991;50.040;18.400;2023-08-12T06:34:44;19.00;65.20
74511;DHT22;62991;50.040;18.400;2023-08-12T06:37:45;19.10;65.60
74511;DHT22;62991;50.040;18.400;2023-08-12T06:40:46;19.20;65.30
74511;DHT22;62991;50.040;18.400;2023-08-12T06:43:47;19.30;65.10
74511;DHT22;62991;50.040;18.400;2023-08-12T06:46:48;19.40;64.90
74511;DHT22;62991;50.040;18.400;2023-08-12T06:49:48;19.50;64.80
74511;DHT22;62991;50.040;18.400;2023-08-12T06:52:49;19.60;64.50
74511;DHT22;62991;50.040;18.400;2023-08-12T06:55:50;19.60;63.50
74511;DHT22;62991;50.040;18.400;2023-08-12T06:58:50;19.70;64.00
74511;DHT22;62991;50.040;18.400;2023-08-12T07:01:51;19.90;63.90
74511;DHT22;62991;50.040;18.400;2023-08-12T07:04:52;20.00;63.80
74511;DHT22;62991;50.040;18.400;2023-08-12T07:07:52;20.10;63.00
74511;DHT22;62991;50.040;18.400;2023-08-12T07:10:53;20.20;62.70
74511;DHT22;62991;50.040;18.400;2023-08-12T07:13:53;20.30;62.10
74511;DHT22;62991;50.040;18.400;2023-08-12T07:16:54;20.40;60.60
74511;DHT22;62991;50.040;18.400;2023-08-12T07:19:55;20.40;60.80
74511;DHT22;62991;50.040;18.400;2023-08-12T07:22:55;20.50;59.90
74511;DHT22;62991;50.040;18.400;2023-08-12T07:25:56;20.60;60.40
74511;DHT22;62991;50.040;18.400;2023-08-12T07:28:57;20.70;58.70
74511;DHT22;62991;50.040;18.400;2023-08-12T07:31:57;20.70;59.10
74511;DHT22;62991;50.040;18.400;2023-08-12T07:34:58;20.80;59.00
74511;DHT22;62991;50.040;18.400;2023-08-12T07:37:59;20.80;58.50
74511;DHT22;62991;50.040;18.400;2023-08-12T07:40:59;20.80;58.70
74511;DHT22;62991;50.040;18.400;2023-08-12T07:44:00;21.00;59.30
74511;DHT22;62991;50.040;18.400;2023-08-12T07:47:00;21.10;58.30
74511;DHT22;62991;50.040;18.400;2023-08-12T07:50:01;21.10;58.10
74511;DHT22;62991;50.040;18.400;2023-08-12T07:53:02;21.20;58.10
74511;DHT22;62991;50.040;18.400;2023-08-12T07:56:03;21.20;58.40
74511;DHT22;62991;50.040;18.400;2023-08-12T07:59:04;21.30;58.70
74511;DHT22;62991;50.040;18.400;2023-08-12T08:02:05;21.40;58.30
74511;DHT22;62991;50.040;18.400;2023-08-12T08:05:06;21.50;58.60
74511;DHT22;62991;50.040;18.400;2023-08-12T08:08:07;21.50;58.70
74511;DHT22;62991;50.040;18.400;2023-08-12T08:11:08;21.50;58.50
74511;DHT22;62991;50.040;18.400;2023-08-12T08:14:08;21.70;59.20
74511;DHT22;62991;50.040;18.400;2023-08-12T08:17:09;21.70;58.20
74511;DHT22;62991;50.040;18.400;2023-08-12T08:20:10;21.80;58.20
74511;DHT22;62991;50.040;18.400;2023-08-12T08:23:11;21.90;56.70
74511;DHT22;62991;50.040;18.400;2023-08-12T08:26:12;21.90;57.30
74511;DHT22;62991;50.040;18.400;2023-08-12T08:29:13;21.90;57.70
74511;DHT22;62991;50.040;18.400;2023-08-12T08:32:14;22.00;57.10
74511;DHT22;62991;50.040;18.400;2023-08-12T08:35:14;22.00;56.60
74511;DHT22;62991;50.040;18.400;2023-08-12T08:38:15;22.10;56.60
74511;DHT22;62991;50.040;18.400;2023-08-12T08:41:16;22.20;56.20
74511;DHT22;62991;50.040;18.400;2023-08-12T08:44:20;22.20;56.20
74511;DHT22;62991;50.040;18.400;2023-08-12T08:47:26;22.30;56.00
74511;DHT22;62991;50.040;18.400;2023-08-12T08:50:29;22.40;56.40
74511;DHT22;62991;50.040;18.400;2023-08-12T08:53:30;22.60;56.00
74511;DHT22;62991;50.040;18.400;2023-08-12T08:56:31;22.60;55.80
74511;DHT22;62991;50.040;18.400;2023-08-12T08:59:33;22.60;55.30
74511;DHT22;62991;50.040;18.400;2023-08-12T09:02:34;22.70;56.90
74511;DHT22;62991;50.040;18.400;2023-08-12T09:05:36;22.90;55.20
74511;DHT22;62991;50.040;18.400;2023-08-12T09:08:37;22.90;54.50
74511;DHT22;62991;50.040;18.400;2023-08-12T09:11:41;22.90;55.00
74511;DHT22;62991;50.040;18.400;2023-08-12T09:14:44;23.10;54.60
74511;DHT22;62991;50.040;18.400;2023-08-12T09:17:45;23.10;54.20
74511;DHT22;62991;50.040;18.400;2023-08-12T09:20:45;23.20;54.80
74511;DHT22;62991;50.040;18.400;2023-08-12T09:23:46;23.30;53.20
74511;DHT22;62991;50.040;18.400;2023-08-12T09:26:52;23.40;53.30
74511;DHT22;62991;50.040;18.400;2023-08-12T09:29:56;23.40;52.60
74511;DHT22;62991;50.040;18.400;2023-08-12T09:33:07;23.40;52.50
74511;DHT22;62991;50.040;18.400;2023-08-12T09:36:08;23.50;52.40
74511;DHT22;62991;50.040;18.400;2023-08-12T09:39:09;23.60;53.00
74511;DHT22;62991;50.040;18.400;2023-08-12T09:42:09;23.70;51.90
74511;DHT22;62991;50.040;18.400;2023-08-12T09:45:11;23.80;50.60
74511;DHT22;62991;50.040;18.400;2023-08-12T09:48:11;23.70;52.60
74511;DHT22;62991;50.040;18.400;2023-08-12T09:51:12;23.80;51.90
74511;DHT22;62991;50.040;18.400;2023-08-12T09:54:13;23.70;51.70
74511;DHT22;62991;50.040;18.400;2023-08-12T09:57:17;23.70;51.40
74511;DHT22;62991;50.040;18.400;2023-08-12T10:00:23;23.80;50.60
74511;DHT22;62991;50.040;18.400;2023-08-12T10:03:24;23.80;49.60
74511;DHT22;62991;50.040;18.400;2023-08-12T10:06:26;23.80;51.20
74511;DHT22;62991;50.040;18.400;2023-08-12T10:09:27;23.90;50.60
74511;DHT22;62991;50.040;18.400;2023-08-12T10:12:28;24.00;50.90
74511;DHT22;62991;50.040;18.400;2023-08-12T10:15:29;24.10;49.60
74511;DHT22;62991;50.040;18.400;2023-08-12T10:18:31;24.20;50.50
74511;DHT22;62991;50.040;18.400;2023-08-12T10:21:32;24.30;49.90
74511;DHT22;62991;50.040;18.400;2023-08-12T10:24:35;24.30;51.60
74511;DHT22;62991;50.040;18.400;2023-08-12T10:27:37;24.30;50.20
74511;DHT22;62991;50.040;18.400;2023-08-12T10:30:40;24.30;49.60
74511;DHT22;62991;50.040;18.400;2023-08-12T10:33:42;24.40;49.50
74511;DHT22;62991;50.040;18.400;2023-08-12T10:36:44;24.40;49.30
74511;DHT22;62991;50.040;18.400;2023-08-12T10:39:45;24.40;48.90
74511;DHT22;62991;50.040;18.400;2023-08-12T10:42:47;24.60;49.60
74511;DHT22;62991;50.040;18.400;2023-08-12T10:45:52;24.60;48.80
74511;DHT22;62991;50.040;18.400;2023-08-12T10:49:02;24.60;49.60
74511;DHT22;62991;50.040;18.400;2023-08-12T10:52:03;24.70;49.60
74511;DHT22;62991;50.040;18.400;2023-08-12T10:58:29;24.90;49.20
74511;DHT22;62991;50.040;18.400;2023-08-12T11:01:30;25.00;50.10
74511;DHT22;62991;50.040;18.400;2023-08-12T11:04:37;25.10;51.00
74511;DHT22;62991;50.040;18.400;2023-08-12T11:10:44;25.20;50.10
74511;DHT22;62991;50.040;18.400;2023-08-12T11:13:57;25.30;50.10
74511;DHT22;62991;50.040;18.400;2023-08-12T11:16:58;25.40;48.00
74511;DHT22;62991;50.040;18.400;2023-08-12T11:19:59;25.40;49.20
74511;DHT22;62991;50.040;18.400;2023-08-12T11:23:02;25.60;49.20
74511;DHT22;62991;50.040;18.400;2023-08-12T11:26:03;25.70;47.40
74511;DHT22;62991;50.040;18.400;2023-08-12T11:29:11;25.70;47.30
74511;DHT22;62991;50.040;18.400;2023-08-12T11:32:12;25.80;47.60
74511;DHT22;62991;50.040;18.400;2023-08-12T11:35:14;25.90;48.50
74511;DHT22;62991;50.040;18.400;2023-08-12T11:38:16;25.90;47.20
74511;DHT22;62991;50.040;18.400;2023-08-12T11:41:22;26.00;47.50
74511;DHT22;62991;50.040;18.400;2023-08-12T11:44:23;26.10;48.90
74511;DHT22;62991;50.040;18.400;2023-08-12T11:47:24;26.30;48.30
74511;DHT22;62991;50.040;18.400;2023-08-12T11:50:26;26.30;48.40
74511;DHT22;62991;50.040;18.400;2023-08-12T11:53:27;26.40;46.40
74511;DHT22;62991;50.040;18.400;2023-08-12T11:56:28;26.40;45.60
74511;DHT22;62991;50.040;18.400;2023-08-12T11:59:30;26.50;45.90
74511;DHT22;62991;50.040;18.400;2023-08-12T12:02:31;26.60;45.00
74511;DHT22;62991;50.040;18.400;2023-08-12T12:05:32;26.60;46.00
74511;DHT22;62991;50.040;18.400;2023-08-12T12:08:35;26.70;44.40
74511;DHT22;62991;50.040;18.400;2023-08-12T12:11:36;26.60;45.70
74511;DHT22;62991;50.040;18.400;2023-08-12T12:14:39;26.50;47.80
74511;DHT22;62991;50.040;18.400;2023-08-12T12:17:40;26.40;47.90
74511;DHT22;62991;50.040;18.400;2023-08-12T12:20:57;26.30;48.40
74511;DHT22;62991;50.040;18.400;2023-08-12T12:23:57;26.40;47.50
74511;DHT22;62991;50.040;18.400;2023-08-12T12:26:58;26.20;47.80
74511;DHT22;62991;50.040;18.400;2023-08-12T12:30:02;26.20;47.80
74511;DHT22;62991;50.040;18.400;2023-08-12T12:33:03;26.20;47.30
74511;DHT22;62991;50.040;18.400;2023-08-12T12:36:04;26.30;46.20
74511;DHT22;62991;50.040;18.400;2023-08-12T12:39:05;26.30;46.90
74511;DHT22;62991;50.040;18.400;2023-08-12T12:42:06;26.20;46.60
74511;DHT22;62991;50.040;18.400;2023-08-12T12:45:07;26.20;48.20
74511;DHT22;62991;50.040;18.400;2023-08-12T12:48:08;26.30;48.60
74511;DHT22;62991;50.040;18.400;2023-08-12T12:51:09;26.30;49.10
74511;DHT22;62991;50.040;18.400;2023-08-12T12:54:09;26.40;48.10
74511;DHT22;62991;50.040;18.400;2023-08-12T12:57:10;26.50;46.80
74511;DHT22;62991;50.040;18.400;2023-08-12T13:00:11;26.50;46.90
74511;DHT22;62991;50.040;18.400;2023-08-12T13:03:12;26.60;46.70
74511;DHT22;62991;50.040;18.400;2023-08-12T13:06:12;26.80;45.50
74511;DHT22;62991;50.040;18.400;2023-08-12T13:09:13;26.80;45.70
74511;DHT22;62991;50.040;18.400;2023-08-12T13:12:13;26.90;46.00
74511;DHT22;62991;50.040;18.400;2023-08-12T13:15:15;27.10;45.90
74511;DHT22;62991;50.040;18.400;2023-08-12T13:18:15;27.20;44.30
74511;DHT22;62991;50.040;18.400;2023-08-12T13:21:16;27.30;45.00
74511;DHT22;62991;50.040;18.400;2023-08-12T13:24:17;27.40;44.80
74511;DHT22;62991;50.040;18.400;2023-08-12T13:27:17;27.40;43.40
74511;DHT22;62991;50.040;18.400;2023-08-12T13:30:18;27.50;44.50
74511;DHT22;62991;50.040;18.400;2023-08-12T13:33:18;27.50;45.40
74511;DHT22;62991;50.040;18.400;2023-08-12T13:36:19;27.80;44.80
74511;DHT22;62991;50.040;18.400;2023-08-12T13:39:20;27.90;44.00
74511;DHT22;62991;50.040;18.400;2023-08-12T13:42:21;28.10;46.40
74511;DHT22;62991;50.040;18.400;2023-08-12T13:45:21;28.30;44.90
74511;DHT22;62991;50.040;18.400;2023-08-12T13:48:22;28.40;44.70
74511;DHT22;62991;50.040;18.400;2023-08-12T13:51:23;28.50;43.10
74511;DHT22;62991;50.040;18.400;2023-08-12T13:54:23;28.50;42.70
74511;DHT22;62991;50.040;18.400;2023-08-12T13:57:24;28.50;43.80
74511;DHT22;62991;50.040;18.400;2023-08-12T14:00:25;28.60;42.40
74511;DHT22;62991;50.040;18.400;2023-08-12T14:03:25;28.90;44.50
74511;DHT22;62991;50.040;18.400;2023-08-12T14:06:26;29.20;42.80
74511;DHT22;62991;50.040;18.400;2023-08-12T14:09:27;29.20;41.10
74511;DHT22;62991;50.040;18.400;2023-08-12T14:12:28;29.40;41.40
74511;DHT22;62991;50.040;18.400;2023-08-12T14:15:29;29.40;41.20
74511;DHT22;62991;50.040;18.400;2023-08-12T14:18:29;29.30;41.30
74511;DHT22;62991;50.040;18.400;2023-08-12T14:21:30;29.40;40.50
74511;DHT22;62991;50.040;18.400;2023-08-12T14:24:31;29.40;40.50
74511;DHT22;62991;50.040;18.400;2023-08-12T14:27:31;29.70;41.90
74511;DHT22;62991;50.040;18.400;2023-08-12T14:30:32;30.00;39.00
74511;DHT22;62991;50.040;18.400;2023-08-12T14:33:33;30.70;39.00
74511;DHT22;62991;50.040;18.400;2023-08-12T14:36:33;32.00;37.80
74511;DHT22;62991;50.040;18.400;2023-08-12T14:39:36;33.20;36.70
74511;DHT22;62991;50.040;18.400;2023-08-12T14:42:37;33.40;36.20
74511;DHT22;62991;50.040;18.400;2023-08-12T14:45:37;33.10;36.00
74511;DHT22;62991;50.040;18.400;2023-08-12T14:48:38;32.90;37.70
74511;DHT22;62991;50.040;18.400;2023-08-12T14:51:38;32.90;37.50
74511;DHT22;62991;50.040;18.400;2023-08-12T14:54:39;32.80;37.10
74511;DHT22;62991;50.040;18.400;2023-08-12T14:57:40;32.50;38.40
74511;DHT22;62991;50.040;18.400;2023-08-12T15:00:40;32.40;37.40
74511;DHT22;62991;50.040;18.400;2023-08-12T15:03:41;32.20;37.60
74511;DHT22;62991;50.040;18.400;2023-08-12T15:06:42;32.20;37.80
74511;DHT22;62991;50.040;18.400;2023-08-12T15:09:43;32.20;39.20
74511;DHT22;62991;50.040;18.400;2023-08-12T15:12:43;31.90;37.40
74511;DHT22;62991;50.040;18.400;2023-08-12T15:15:48;32.00;39.30
74511;DHT22;62991;50.040;18.400;2023-08-12T15:18:49;32.00;37.70
74511;DHT22;62991;50.040;18.400;2023-08-12T15:21:50;32.10;37.80
74511;DHT22;62991;50.040;18.400;2023-08-12T15:24:51;31.80;37.60
74511;DHT22;62991;50.040;18.400;2023-08-12T15:27:53;31.70;39.00
74511;DHT22;62991;50.040;18.400;2023-08-12T15:30:53;31.40;38.90
74511;DHT22;62991;50.040;18.400;2023-08-12T15:33:54;31.40;38.60
74511;DHT22;62991;50.040;18.400;2023-08-12T15:36:55;31.40;38.30
74511;DHT22;62991;50.040;18.400;2023-08-12T15:39:55;31.10;38.90
74511;DHT22;62991;50.040;18.400;2023-08-12T15:42:56;31.10;39.10
74511;DHT22;62991;50.040;18.400;2023-08-12T15:45:57;31.10;38.00
74511;DHT22;62991;50.040;18.400;2023-08-12T15:48:57;30.90;38.70
74511;DHT22;62991;50.040;18.400;2023-08-12T15:51:58;30.90;39.50
74511;DHT22;62991;50.040;18.400;2023-08-12T15:54:59;30.60;39.40
74511;DHT22;62991;50.040;18.400;2023-08-12T15:57:59;30.60;39.20
74511;DHT22;62991;50.040;18.400;2023-08-12T16:01:00;30.50;39.10
74511;DHT22;62991;50.040;18.400;2023-08-12T16:04:01;30.50;38.30
74511;DHT22;62991;50.040;18.400;2023-08-12T16:07:01;30.50;38.00
74511;DHT22;62991;50.040;18.400;2023-08-12T16:10:03;30.40;38.40
74511;DHT22;62991;50.040;18.400;2023-08-12T16:13:04;30.30;38.70
74511;DHT22;62991;50.040;18.400;2023-08-12T16:16:04;30.30;39.10
74511;DHT22;62991;50.040;18.400;2023-08-12T16:19:05;30.30;39.10
74511;DHT22;62991;50.040;18.400;2023-08-12T16:22:06;30.20;38.30
74511;DHT22;62991;50.040;18.400;2023-08-12T16:25:07;30.00;38.60
74511;DHT22;62991;50.040;18.400;2023-08-12T16:28:08;29.90;39.50
74511;DHT22;62991;50.040;18.400;2023-08-12T16:31:09;30.00;39.50
74511;DHT22;62991;50.040;18.400;2023-08-12T16:34:10;29.80;39.80
74511;DHT22;62991;50.040;18.400;2023-08-12T16:37:10;30.00;39.60
74511;DHT22;62991;50.040;18.400;2023-08-12T16:40:11;29.90;40.40
74511;DHT22;62991;50.040;18.400;2023-08-12T16:43:12;29.90;39.50
74511;DHT22;62991;50.040;18.400;2023-08-12T16:46:13;29.90;39.80
74511;DHT22;62991;50.040;18.400;2023-08-12T16:49:13;29.90;40.90
74511;DHT22;62991;50.040;18.400;2023-08-12T16:52:14;29.90;39.70
74511;DHT22;62991;50.040;18.400;2023-08-12T16:55:15;29.90;40.60
74511;DHT22;62991;50.040;18.400;2023-08-12T16:58:15;29.90;41.10
74511;DHT22;62991;50.040;18.400;2023-08-12T17:01:16;29.90;40.00
74511;DHT22;62991;50.040;18.400;2023-08-12T17:04:17;29.70;40.90
74511;DHT22;62991;50.040;18.400;2023-08-12T17:07:17;29.60;40.90
74511;DHT22;62991;50.040;18.400;2023-08-12T17:10:18;29.60;41.00
74511;DHT22;62991;50.040;18.400;2023-08-12T17:13:19;29.50;41.30
74511;DHT22;62991;50.040;18.400;2023-08-12T17:16:20;29.50;42.50
74511;DHT22;62991;50.040;18.400;2023-08-12T17:19:21;29.50;43.10
74511;DHT22;62991;50.040;18.400;2023-08-12T17:22:21;29.50;42.10
74511;DHT22;62991;50.040;18.400;2023-08-12T17:25:22;29.40;43.00
74511;DHT22;62991;50.040;18.400;2023-08-12T17:28:23;29.40;42.70
74511;DHT22;62991;50.040;18.400;2023-08-12T17:31:23;29.30;43.60
74511;DHT22;62991;50.040;18.400;2023-08-12T17:34:24;29.20;43.20
74511;DHT22;62991;50.040;18.400;2023-08-12T17:37:25;29.10;44.20
74511;DHT22;62991;50.040;18.400;2023-08-12T17:40:25;28.90;43.40
74511;DHT22;62991;50.040;18.400;2023-08-12T17:43:26;28.80;43.90
74511;DHT22;62991;50.040;18.400;2023-08-12T17:46:27;28.70;44.00
74511;DHT22;62991;50.040;18.400;2023-08-12T17:49:27;28.40;43.80
74511;DHT22;62991;50.040;18.400;2023-08-12T17:52:29;28.20;44.50
74511;DHT22;62991;50.040;18.400;2023-08-12T17:55:29;27.90;45.50
74511;DHT22;62991;50.040;18.400;2023-08-12T17:58:30;27.60;45.30
74511;DHT22;62991;50.040;18.400;2023-08-12T18:01:31;27.50;46.00
74511;DHT22;62991;50.040;18.400;2023-08-12T18:04:31;27.40;46.20
74511;DHT22;62991;50.040;18.400;2023-08-12T18:07:32;27.30;46.50
74511;DHT22;62991;50.040;18.400;2023-08-12T18:10:33;27.10;46.80
74511;DHT22;62991;50.040;18.400;2023-08-12T18:13:33;27.00;46.90
74511;DHT22;62991;50.040;18.400;2023-08-12T18:16:34;26.90;46.70
74511;DHT22;62991;50.040;18.400;2023-08-12T18:19:35;26.80;47.40
74511;DHT22;62991;50.040;18.400;2023-08-12T18:22:35;26.50;47.30
74511;DHT22;62991;50.040;18.400;2023-08-12T18:40:51;26.80;48.60
74511;DHT22;62991;50.040;18.400;2023-08-12T18:43:52;25.90;49.10
74511;DHT22;62991;50.040;18.400;2023-08-12T18:46:53;25.80;49.90
74511;DHT22;62991;50.040;18.400;2023-08-12T18:49:53;25.80;49.40
74511;DHT22;62991;50.040;18.400;2023-08-12T18:52:54;25.60;50.20
74511;DHT22;62991;50.040;18.400;2023-08-12T18:55:55;25.40;49.40
74511;DHT22;62991;50.040;18.400;2023-08-12T18:58:55;25.30;49.80
74511;DHT22;62991;50.040;18.400;2023-08-12T19:01:56;25.20;50.00
74511;DHT22;62991;50.040;18.400;2023-08-12T19:04:58;25.00;50.20
74511;DHT22;62991;50.040;18.400;2023-08-12T19:07:59;25.00;50.90